Time;durP1;ratioP1;P1;durP2;ratioP2;P2;SDS_P1;SDS_P2;PMS_P1;PMS_P2;Temp;Humidity;BMP_temperature;BMP_pressure;BME280_temperature;BME280_humidity;BME280_pressure;Samples;Min_cycle;Max_cycle;Signal;HPM_P1;HPM_P2
2022/02/15 00:00:11;;;;;;;;;7.33;4.00;;;;;9.89;68.31;100850.06;5027743;28;45270;-75
2022/02/15 00:02:37;;;;;;;;;4.75;3.00;;;;;9.89;68.71;100850.06;5040659;28;45384;-75
2022/02/15 00:05:02;;;;;;;;;4.00;2.67;;;;;9.87;68.41;100850.06;5057511;28;47622;-75
2022/02/15 00:07:28;;;;;;;;;12.33;3.67;;;;;9.85;69.07;100854.41;5059220;28;46549;-76
2022/02/15 00:09:53;;;;;;;;;3.00;2.00;;;;;9.80;68.63;100864.03;5059238;28;45389;-76
2022/02/15 00:12:18;;;;;;;;;2.33;2.33;;;;;9.74;68.57;100857.75;5041854;28;58599;-76
2022/02/15 00:14:44;;;;;;;;;6.00;2.67;;;;;9.69;68.94;100865.59;5038964;28;52698;-75
2022/02/15 00:17:11;;;;;;;;;3.67;2.33;;;;;9.64;68.81;100862.91;5038395;28;59817;-75
2022/02/15 00:19:37;;;;;;;;;5.33;2.00;;;;;9.64;69.00;100864.63;5039011;28;45355;-75
2022/02/15 00:22:02;;;;;;;;;6.00;2.00;;;;;9.65;68.95;100864.69;5055650;28;57914;-77
2022/02/15 00:24:28;;;;;;;;;4.00;2.00;;;;;9.64;68.67;100867.28;5039530;28;45345;-74
2022/02/15 00:26:53;;;;;;;;;4.00;3.00;;;;;9.68;68.71;100869.09;5038105;28;47561;-75
2022/02/15 00:29:18;;;;;;;;;2.00;2.00;;;;;9.62;68.98;100866.38;5038818;28;45183;-75
2022/02/15 00:31:44;;;;;;;;;4.00;3.00;;;;;9.65;69.26;100883.13;5038553;28;56663;-76
2022/02/15 00:34:09;;;;;;;;;2.67;1.00;;;;;9.67;69.02;100875.25;5039269;28;45528;-75
2022/02/15 00:36:35;;;;;;;;;3.00;2.00;;;;;9.63;68.63;100881.31;5057486;28;46652;-75
2022/02/15 00:39:02;;;;;;;;;3.00;2.00;;;;;9.61;68.85;100886.56;5059083;28;45236;-75
2022/02/15 00:41:28;;;;;;;;;2.00;2.00;;;;;9.54;68.88;100876.81;5041182;28;45325;-74
2022/02/15 00:43:53;;;;;;;;;2.00;2.00;;;;;9.57;68.87;100892.66;5045401;28;45320;-76
2022/02/15 00:46:19;;;;;;;;;1.00;1.00;;;;;9.57;69.26;100886.50;5038299;28;45651;-75
2022/02/15 00:48:44;;;;;;;;;4.00;2.33;;;;;9.57;69.15;100897.03;5021050;28;45427;-76
2022/02/15 00:51:09;;;;;;;;;1.00;1.00;;;;;9.56;69.13;100882.97;5020292;28;57819;-76
2022/02/15 00:53:35;;;;;;;;;5.33;2.00;;;;;9.62;69.03;100900.66;5038631;28;56578;-76
2022/02/15 00:56:00;;;;;;;;;6.00;2.00;;;;;9.66;68.91;100906.00;5037878;28;61267;-76
2022/02/15 00:58:25;;;;;;;;;2.00;2.00;;;;;9.71;68.99;100906.06;5040629;28;59861;-75
2022/02/15 01:00:51;;;;;;;;;3.25;3.25;;;;;9.75;69.10;100906.97;5062532;28;54340;-75
2022/02/15 01:03:16;;;;;;;;;6.75;2.50;;;;;9.76;68.53;100909.66;5049032;28;56753;-76
2022/02/15 01:05:42;;;;;;;;;4.67;3.00;;;;;9.77;68.66;100908.78;5037761;28;59862;-75
2022/02/15 01:08:07;;;;;;;;;2.25;2.25;;;;;9.77;69.13;100913.19;5037803;28;59027;-76
2022/02/15 01:10:33;;;;;;;;;3.00;2.00;;;;;9.78;69.24;100920.22;5055342;28;45174;-76
2022/02/15 01:12:58;;;;;;;;;6.00;2.00;;;;;9.75;68.71;100913.19;5038760;28;45423;-76
2022/02/15 01:15:26;;;;;;;;;1.33;1.33;;;;;9.78;68.76;100915.84;5038089;28;46500;-75
2022/02/15 01:17:51;;;;;;;;;4.00;2.33;;;;;9.79;69.39;100922.00;5038318;28;45624;-75
2022/02/15 01:20:17;;;;;;;;;1.00;1.00;;;;;9.76;68.88;100914.94;5023922;28;54579;-75
2022/02/15 01:22:42;;;;;;;;;6.75;3.00;;;;;9.81;68.82;100926.44;5051328;28;45482;-75
2022/02/15 01:25:08;;;;;;;;;4.67;3.00;;;;;9.83;68.74;100929.09;5037977;28;46007;-75
2022/02/15 01:27:35;;;;;;;;;4.00;2.00;;;;;9.80;68.96;100929.94;5038219;28;45384;-75
2022/02/15 01:30:01;;;;;;;;;2.00;2.00;;;;;9.72;68.70;100921.03;5038096;28;45309;-76
2022/02/15 01:32:26;;;;;;;;;1.33;1.00;;;;;9.66;69.32;100926.19;5038399;28;45356;-75
2022/02/15 01:34:51;;;;;;;;;4.67;2.00;;;;;9.64;68.89;100931.47;5042251;28;46181;-77
2022/02/15 01:37:17;;;;;;;;;3.00;2.00;;;;;9.69;68.87;100936.78;5053583;28;60400;-76
2022/02/15 01:39:42;;;;;;;;;2.67;1.00;;;;;9.65;68.70;100935.88;5036990;28;45209;-76
2022/02/15 01:42:08;;;;;;;;;2.00;2.00;;;;;9.59;69.33;100940.16;5019672;28;53503;-76
2022/02/15 01:44:36;;;;;;;;;2.00;2.00;;;;;9.57;69.18;100944.50;5020192;28;46976;-75
2022/02/15 01:47:03;;;;;;;;;3.00;2.00;;;;;9.54;68.93;100939.19;5057466;28;45309;-76
2022/02/15 01:49:28;;;;;;;;;2.00;2.00;;;;;9.56;68.96;100942.72;5057729;28;45269;-76
2022/02/15 01:51:54;;;;;;;;;2.00;2.00;;;;;9.57;69.37;100952.41;5057481;28;56526;-75
2022/02/15 01:54:19;;;;;;;;;4.00;2.00;;;;;9.55;69.06;100951.50;5037518;28;66055;-76
2022/02/15 01:56:44;;;;;;;;;5.00;2.00;;;;;9.52;68.84;100968.13;5036841;28;58124;-75
2022/02/15 01:59:10;;;;;;;;;1.00;0.00;;;;;9.45;69.25;100956.59;5037780;28;45883;-76
2022/02/15 02:01:35;;;;;;;;;3.00;2.00;;;;;9.50;69.32;100966.34;5054542;28;52968;-75
2022/02/15 02:04:01;;;;;;;;;2.67;2.00;;;;;9.50;69.07;100966.34;5052344;28;60603;-75
2022/02/15 02:06:26;;;;;;;;;2.00;1.00;;;;;9.48;69.16;100970.69;5037133;28;54225;-75
2022/02/15 02:08:51;;;;;;;;;2.00;2.00;;;;;9.47;69.42;100974.19;5042029;28;45383;-74
2022/02/15 02:11:17;;;;;;;;;3.00;1.00;;;;;9.48;69.14;100975.97;5039712;28;45551;-75
2022/02/15 02:13:42;;;;;;;;;3.00;1.33;;;;;9.47;69.16;100987.38;5056525;28;46304;-75
2022/02/15 02:16:08;;;;;;;;;2.00;1.33;;;;;9.45;69.27;100985.59;5057316;28;45273;-76
2022/02/15 02:18:34;;;;;;;;;1.25;1.25;;;;;9.46;69.36;100989.13;5047931;28;45337;-76
2022/02/15 02:21:03;;;;;;;;;2.00;2.00;;;;;9.50;69.43;100984.81;5044001;28;45503;-76
2022/02/15 02:23:28;;;;;;;;;8.67;3.00;;;;;9.52;69.00;100994.50;5045365;28;46747;-75
2022/02/15 02:25:54;;;;;;;;;4.00;2.00;;;;;9.53;69.30;100982.19;5036594;28;61179;-75
2022/02/15 02:28:19;;;;;;;;;1.33;1.00;;;;;9.52;68.92;100977.78;5037149;28;48338;-76
2022/02/15 02:30:47;;;;;;;;;2.33;1.00;;;;;9.56;69.29;100992.81;5002687;28;45355;-75
2022/02/15 02:33:12;;;;;;;;;2.00;1.00;;;;;9.53;69.20;100985.72;5037152;28;47422;-76
2022/02/15 02:35:38;;;;;;;;;1.33;1.00;;;;;9.59;69.30;100993.75;5053545;28;45420;-76
2022/02/15 02:38:05;;;;;;;;;1.00;1.00;;;;;9.59;69.05;100998.16;5056173;28;53611;-76
2022/02/15 02:40:33;;;;;;;;;2.00;1.00;;;;;9.60;69.19;101006.06;5162231;22;45622;-75
2022/02/15 02:42:59;;;;;;;;;1.25;1.25;;;;;9.61;68.91;101001.69;5067076;28;47313;-75
2022/02/15 02:45:24;;;;;;;;;1.00;1.00;;;;;9.61;68.84;101010.47;5058095;28;45324;-75
2022/02/15 02:47:55;;;;;;;;;3.33;1.00;;;;;9.61;68.91;101014.88;5057298;28;45274;-76
2022/02/15 02:50:28;;;;;;;;;4.00;1.00;;;;;9.58;68.90;101017.44;5062190;28;45363;-75
2022/02/15 02:52:55;;;;;;;;;1.50;1.25;;;;;9.54;68.55;101018.28;5057285;28;46545;-75
2022/02/15 02:55:20;;;;;;;;;1.00;1.00;;;;;9.48;68.65;101016.41;5056988;28;45431;-76
2022/02/15 02:57:46;;;;;;;;;1.00;1.00;;;;;9.42;68.89;101016.28;5056758;28;45312;-75
2022/02/15 03:00:13;;;;;;;;;1.00;1.00;;;;;9.37;68.84;101026.72;5041502;28;55557;-75
2022/02/15 03:02:39;;;;;;;;;2.00;1.00;;;;;9.32;68.96;101028.41;5042377;28;47596;-75
2022/02/15 03:05:04;;;;;;;;;1.67;1.00;;;;;9.28;69.31;101037.09;5056846;28;45368;-75
2022/02/15 03:07:30;;;;;;;;;1.00;1.00;;;;;9.25;69.66;101028.25;5056725;28;45304;-75
2022/02/15 03:09:55;;;;;;;;;6.33;1.00;;;;;9.22;69.39;101034.34;5058664;28;45495;-75
2022/02/15 03:12:20;;;;;;;;;2.75;0.50;;;;;9.19;69.65;101042.19;5056192;28;63919;-75
2022/02/15 03:14:47;;;;;;;;;1.00;1.00;;;;;9.18;69.48;101040.41;5038543;28;45400;-75
2022/02/15 03:17:13;;;;;;;;;1.50;1.50;;;;;9.15;69.67;101051.75;5059642;28;45480;-75
2022/02/15 03:19:38;;;;;;;;;1.67;1.00;;;;;9.16;69.66;101063.19;5077105;28;45271;-75
2022/02/15 03:22:06;;;;;;;;;2.00;2.00;;;;;9.18;69.50;101070.28;5061980;28;63269;-76
2022/02/15 03:24:33;;;;;;;;;3.00;2.00;;;;;9.21;69.25;101065.91;5064385;28;45430;-75
2022/02/15 03:26:59;;;;;;;;;3.00;2.00;;;;;9.22;69.43;101065.97;5076566;28;45436;-75
2022/02/15 03:29:24;;;;;;;;;1.33;0.00;;;;;9.24;69.20;101063.34;5075847;28;45347;-75
2022/02/15 03:31:50;;;;;;;;;0.00;0.00;;;;;9.18;69.04;101077.28;5058322;28;45521;-76
2022/02/15 03:34:15;;;;;;;;;2.00;1.00;;;;;9.22;69.57;101087.06;5056643;28;45368;-77
2022/02/15 03:36:41;;;;;;;;;3.00;1.00;;;;;9.22;69.09;101083.53;5077794;27;45420;-75
2022/02/15 03:39:09;;;;;;;;;2.75;1.25;;;;;9.19;69.48;101079.97;5038484;28;51689;-75
2022/02/15 03:44:19;;;;;;;;;8.33;1.00;;;;;9.10;69.21;101095.56;5076468;28;45478;-75
2022/02/15 03:46:44;;;;;;;;;1.00;1.00;;;;;9.06;69.40;101104.28;5076772;28;45730;-75
2022/02/15 03:49:12;;;;;;;;;4.75;1.75;;;;;9.01;69.32;101108.56;5075441;28;45417;-76
2022/02/15 03:51:40;;;;;;;;;1.00;0.00;;;;;8.98;69.18;101118.13;5058124;28;45662;-76
2022/02/15 03:54:13;;;;;;;;;6.25;1.00;;;;;8.92;69.24;101117.13;5074439;28;59750;-75
2022/02/15 03:56:38;;;;;;;;;2.50;1.75;;;;;8.85;69.18;101117.88;5076285;28;45259;-75
2022/02/15 03:59:04;;;;;;;;;2.25;1.00;;;;;8.84;69.44;101124.00;5074848;28;54067;-76
2022/02/15 04:01:30;;;;;;;;;3.50;1.00;;;;;8.87;69.50;101123.16;5067532;28;46013;-76
2022/02/15 04:03:55;;;;;;;;;0.50;0.25;;;;;8.86;69.61;101130.16;5067169;28;45340;-75
2022/02/15 04:06:20;;;;;;;;;3.00;2.00;;;;;8.86;69.33;101132.81;5058912;28;55422;-75
2022/02/15 04:08:46;;;;;;;;;2.75;1.00;;;;;8.85;69.40;101133.66;5063112;28;50256;-75
2022/02/15 04:11:12;;;;;;;;;1.25;1.00;;;;;8.83;69.37;101147.63;5044316;28;50133;-75
2022/02/15 04:13:38;;;;;;;;;1.00;1.00;;;;;8.80;69.12;101150.22;5059739;28;45411;-75
2022/02/15 04:16:03;;;;;;;;;0.00;0.00;;;;;8.76;69.49;101154.50;5065193;28;45335;-77
2022/02/15 04:18:29;;;;;;;;;2.00;1.00;;;;;8.76;69.36;101167.66;5079761;28;45474;-74
2022/02/15 04:20:54;;;;;;;;;2.00;1.00;;;;;8.69;69.43;101157.84;5078724;28;58382;-77
2022/02/15 04:23:19;;;;;;;;;2.75;0.75;;;;;8.72;69.48;101165.81;5078364;28;53523;-76
2022/02/15 04:25:45;;;;;;;;;0.00;0.00;;;;;8.71;69.38;101179.81;5079652;28;45380;-76
2022/02/15 04:28:10;;;;;;;;;1.00;0.00;;;;;8.71;69.42;101174.56;5073653;28;54363;-77
2022/02/15 04:30:35;;;;;;;;;2.00;1.00;;;;;8.71;69.63;101179.81;5058602;28;60924;-76
2022/02/15 04:33:01;;;;;;;;;1.00;0.00;;;;;8.71;69.47;101178.94;5041134;28;46232;-76
2022/02/15 04:35:27;;;;;;;;;3.75;1.00;;;;;8.70;69.16;101185.94;5069338;28;45479;-77
2022/02/15 04:37:52;;;;;;;;;2.25;1.00;;;;;8.68;69.43;101187.63;5048071;28;52957;-76
2022/02/15 04:40:18;;;;;;;;;9.50;2.00;;;;;8.69;69.27;101193.81;5058687;28;46155;-76
2022/02/15 04:42:43;;;;;;;;;2.00;1.00;;;;;8.69;69.27;101197.34;5059253;28;45311;-76
2022/02/15 04:45:09;;;;;;;;;2.50;1.00;;;;;8.69;69.16;101201.72;5040851;28;45387;-76
2022/02/15 04:47:34;;;;;;;;;1.25;1.00;;;;;8.69;69.15;101207.88;5074811;28;54293;-76
2022/02/15 04:49:59;;;;;;;;;3.50;0.75;;;;;8.68;68.98;101202.53;5078833;28;48035;-76
2022/02/15 04:52:25;;;;;;;;;2.25;1.00;;;;;8.68;69.04;101216.59;5076434;28;56334;-75
2022/02/15 04:54:50;;;;;;;;;1.50;1.50;;;;;8.68;68.82;101207.81;5058210;28;54744;-75
2022/02/15 04:57:15;;;;;;;;;3.00;0.00;;;;;8.63;68.93;101208.63;5058246;28;53853;-75
2022/02/15 04:59:41;;;;;;;;;0.00;0.00;;;;;8.63;69.26;101213.00;5058124;28;60014;-75
2022/02/15 05:02:07;;;;;;;;;1.67;1.00;;;;;8.61;69.15;101222.56;5074124;28;45291;-76
2022/02/15 05:04:50;;;;;;;;;3.50;0.50;;;;;8.58;68.99;101220.78;5078600;28;45437;-75
2022/02/15 05:07:20;;;;;;;;;4.25;1.00;;;;;8.51;69.09;101200.38;5079166;28;45327;-76
2022/02/15 05:09:45;;;;;;;;;1.00;1.00;;;;;8.54;69.17;101212.75;5069492;28;46001;-75
2022/02/15 05:12:11;;;;;;;;;1.25;1.00;;;;;8.54;68.96;101229.44;5058807;28;45470;-76
2022/02/15 05:14:37;;;;;;;;;0.50;0.50;;;;;8.52;69.16;101220.63;5040516;28;45340;-75
2022/02/15 05:17:02;;;;;;;;;4.25;0.25;;;;;8.52;69.22;101222.31;5058325;28;45387;-76
2022/02/15 05:19:28;;;;;;;;;1.00;1.00;;;;;8.51;69.13;101231.09;5078177;28;46523;-77
2022/02/15 05:21:55;;;;;;;;;3.25;0.25;;;;;8.51;69.16;101229.34;5060802;28;45275;-76
2022/02/15 05:24:21;;;;;;;;;0.50;0.50;;;;;8.51;69.24;101221.44;5047781;28;45514;-76
2022/02/15 05:26:46;;;;;;;;;2.25;1.25;;;;;8.51;69.20;101237.22;5064170;28;53422;-77
2022/02/15 05:29:11;;;;;;;;;1.25;1.00;;;;;8.49;68.97;101235.44;5077949;28;58765;-75
2022/02/15 05:31:37;;;;;;;;;1.75;1.00;;;;;8.49;69.13;101233.69;5061116;28;45395;-76
2022/02/15 05:34:02;;;;;;;;;2.50;0.00;;;;;8.44;69.24;101245.81;5066829;28;45441;-75
2022/02/15 05:36:28;;;;;;;;;2.00;0.00;;;;;8.42;69.53;101237.00;5054218;28;45495;-76
2022/02/15 05:38:53;;;;;;;;;4.25;1.00;;;;;8.46;69.06;101245.84;5067469;28;45550;-77
2022/02/15 05:41:18;;;;;;;;;0.25;0.25;;;;;8.44;69.28;101240.56;5070088;28;58335;-77
2022/02/15 05:43:44;;;;;;;;;1.50;1.50;;;;;8.39;69.22;101229.03;5062496;28;55934;-77
2022/02/15 05:46:09;;;;;;;;;7.00;1.00;;;;;8.43;69.25;101230.00;5064155;28;45520;-76
2022/02/15 05:48:35;;;;;;;;;1.00;1.00;;;;;8.33;69.37;101232.34;5063262;28;47545;-76
2022/02/15 05:51:00;;;;;;;;;2.50;1.00;;;;;8.40;68.79;101243.97;5073074;28;58607;-76
2022/02/15 05:53:27;;;;;;;;;7.75;1.00;;;;;8.38;68.98;101253.56;5057207;28;54610;-78
2022/02/15 05:55:55;;;;;;;;;3.00;1.00;;;;;8.37;68.83;101251.78;5066805;28;45456;-78
2022/02/15 05:58:24;;;;;;;;;1.00;1.00;;;;;8.32;69.06;101249.00;5052348;28;46605;-78
2022/02/15 06:00:49;;;;;;;;;6.00;1.00;;;;;8.30;69.02;101252.41;5065440;28;45378;-77
2022/02/15 06:05:59;;;;;;;;;1.00;1.00;;;;;8.23;69.04;101242.59;5050279;28;45479;-78
2022/02/15 06:08:24;;;;;;;;;1.00;1.00;;;;;8.24;68.91;101247.00;5051981;28;47280;-76
2022/02/15 06:10:51;;;;;;;;;1.25;1.25;;;;;8.24;69.08;101254.88;5056297;28;63653;-75
2022/02/15 06:13:16;;;;;;;;;7.00;1.00;;;;;8.24;68.95;101270.69;5065393;28;45407;-74
2022/02/15 06:15:42;;;;;;;;;0.50;0.50;;;;;8.14;69.23;101252.00;5039706;28;51543;-75
2022/02/15 06:18:08;;;;;;;;;0.75;0.50;;;;;8.22;69.02;101272.38;5068790;28;62002;-74
2022/02/15 06:20:33;;;;;;;;;3.50;2.00;;;;;8.21;68.85;101275.88;5068619;28;47387;-76
2022/02/15 06:22:58;;;;;;;;;2.00;1.00;;;;;8.20;68.77;101277.56;5069012;28;45416;-77
2022/02/15 06:25:24;;;;;;;;;3.00;0.50;;;;;8.20;68.88;101272.31;5048189;28;51297;-75
2022/02/15 06:27:49;;;;;;;;;1.75;1.00;;;;;8.20;68.82;101271.44;5065357;28;62165;-75
2022/02/15 06:30:14;;;;;;;;;2.00;0.50;;;;;8.12;68.59;101273.88;5072357;28;57759;-76
2022/02/15 06:32:40;;;;;;;;;2.00;1.00;;;;;7.87;69.60;101273.16;5073739;28;54796;-75
2022/02/15 06:35:06;;;;;;;;;1.00;1.00;;;;;7.81;69.62;101282.59;5074807;28;45449;-76
2022/02/15 06:37:34;;;;;;;;;1.50;1.00;;;;;7.66;70.39;101290.03;5068501;28;46499;-80
2022/02/15 06:39:59;;;;;;;;;3.00;1.00;;;;;7.61;69.97;101295.16;5066600;28;45960;-77
2022/02/15 06:42:30;;;;;;;;;2.25;0.75;;;;;7.51;70.76;101288.75;5063865;28;45502;-76
2022/02/15 06:44:55;;;;;;;;;5.00;1.00;;;;;7.43;70.39;101286.72;5070270;28;45315;-77
2022/02/15 06:47:21;;;;;;;;;5.25;1.00;;;;;7.35;71.32;101297.88;5066133;28;47571;-76
2022/02/15 06:49:49;;;;;;;;;1.00;1.00;;;;;7.24;71.30;101309.75;5068338;28;45470;-76
2022/02/15 06:52:14;;;;;;;;;1.00;1.00;;;;;7.19;71.20;101316.63;5064584;28;45543;-76
2022/02/15 06:54:40;;;;;;;;;2.00;1.00;;;;;7.13;71.67;101318.13;5067584;28;51474;-77
2022/02/15 06:57:05;;;;;;;;;7.00;0.50;;;;;7.08;71.67;101318.91;5068791;28;46906;-76
2022/02/15 06:59:30;;;;;;;;;5.50;1.75;;;;;7.04;71.75;101319.63;5071352;28;55427;-75
2022/02/15 07:01:56;;;;;;;;;4.50;1.25;;;;;7.01;71.98;101331.75;5069444;28;46017;-76
2022/02/15 07:04:22;;;;;;;;;3.00;1.75;;;;;6.99;71.74;101322.94;5070642;28;45140;-76
2022/02/15 07:06:50;;;;;;;;;1.50;1.50;;;;;6.95;72.79;101321.94;5065940;28;55481;-75
2022/02/15 07:09:15;;;;;;;;;1.50;0.50;;;;;6.94;72.48;101324.53;5067242;27;45414;-76
2022/02/15 07:11:41;;;;;;;;;1.00;1.00;;;;;6.94;72.36;101333.28;5072297;27;45522;-75
2022/02/15 07:14:08;;;;;;;;;4.25;0.25;;;;;7.02;71.78;101330.91;5078624;27;52420;-76
2022/02/15 07:16:34;;;;;;;;;5.00;1.00;;;;;7.09;71.68;101330.28;5072644;27;47022;-75
2022/02/15 07:19:00;;;;;;;;;2.50;1.00;;;;;7.15;71.64;101330.50;5068024;27;45524;-74
2022/02/15 07:21:30;;;;;;;;;4.75;2.00;;;;;7.17;71.80;101331.41;5070714;28;45389;-74
2022/02/15 07:23:58;;;;;;;;;1.50;1.50;;;;;7.19;71.62;101334.09;5072024;28;45623;-75
2022/02/15 07:26:23;;;;;;;;;2.00;0.50;;;;;7.23;70.94;101333.34;5074170;28;47060;-75
2022/02/15 07:28:49;;;;;;;;;3.50;1.00;;;;;7.25;71.03;101331.69;5059275;28;47990;-75
2022/02/15 07:31:14;;;;;;;;;10.25;1.00;;;;;7.31;71.08;101330.16;5071497;28;45257;-76
2022/02/15 07:33:40;;;;;;;;;4.75;2.00;;;;;7.47;70.77;101336.78;5064137;28;45629;-77
2022/02/15 07:36:06;;;;;;;;;2.75;1.50;;;;;7.52;70.74;101334.31;5056664;28;46467;-76
2022/02/15 07:38:31;;;;;;;;;1.50;1.50;;;;;7.60;70.55;101336.31;5055417;28;58093;-75
2022/02/15 07:40:56;;;;;;;;;2.00;0.50;;;;;7.69;70.11;101340.06;5075390;27;45570;-75
2022/02/15 07:43:25;;;;;;;;;1.50;1.25;;;;;7.75;70.28;101351.66;5069000;28;45410;-76
2022/02/15 07:45:51;;;;;;;;;3.00;1.75;;;;;7.80;69.79;101351.81;5058327;28;45686;-76
2022/02/15 07:48:16;;;;;;;;;1.00;1.00;;;;;7.83;69.72;101352.81;5071461;28;45505;-75
2022/02/15 07:50:42;;;;;;;;;1.00;1.00;;;;;7.88;69.86;101353.84;5071054;28;45772;-76
2022/02/15 07:53:08;;;;;;;;;2.00;1.00;;;;;7.88;69.39;101353.84;5078359;28;45780;-76
2022/02/15 07:55:34;;;;;;;;;6.00;1.00;;;;;7.92;69.57;101351.28;5039697;28;45478;-76
2022/02/15 07:57:59;;;;;;;;;4.75;0.25;;;;;8.02;69.36;101369.13;5061857;27;45900;-76
2022/02/15 08:00:24;;;;;;;;;2.00;1.00;;;;;8.05;69.09;101358.72;5069555;28;45371;-76
2022/02/15 08:02:51;;;;;;;;;2.50;1.25;;;;;8.08;69.09;101364.91;5072715;28;47195;-77
2022/02/15 08:05:17;;;;;;;;;2.25;0.00;;;;;8.13;68.90;101375.59;5057624;28;46516;-76
2022/02/15 08:07:47;;;;;;;;;2.25;2.00;;;;;8.17;68.95;101385.34;5072553;28;45345;-75
2022/02/15 08:10:13;;;;;;;;;2.50;2.00;;;;;8.18;69.15;101381.00;5051886;28;45319;-75
2022/02/15 08:12:42;;;;;;;;;5.00;2.50;;;;;8.18;68.86;101368.72;5074410;28;45482;-75
2022/02/15 08:15:09;;;;;;;;;3.50;1.00;;;;;8.28;68.66;101380.41;5064120;28;47127;-75
2022/02/15 08:17:34;;;;;;;;;3.75;0.50;;;;;8.29;68.72;101395.34;5068558;28;45466;-76
2022/02/15 08:20:00;;;;;;;;;1.00;0.25;;;;;8.32;68.84;101401.59;5065902;28;45415;-76
2022/02/15 08:22:25;;;;;;;;;4.00;1.00;;;;;8.32;68.25;101388.44;5075300;27;46112;-77
2022/02/15 08:24:50;;;;;;;;;1.00;0.25;;;;;8.32;68.23;101391.06;5079079;27;61799;-76
2022/02/15 08:27:16;;;;;;;;;3.00;1.00;;;;;8.27;68.27;101403.19;5069332;27;62867;-75
2022/02/15 08:29:44;;;;;;;;;0.50;0.00;;;;;8.30;68.26;101402.38;5068943;28;56681;-75
2022/02/15 08:32:10;;;;;;;;;1.75;1.00;;;;;8.30;68.33;101400.63;5075543;28;45496;-76
2022/02/15 08:34:35;;;;;;;;;0.00;0.00;;;;;8.33;68.00;101411.28;5075025;28;46843;-76
2022/02/15 08:37:02;;;;;;;;;1.00;1.00;;;;;8.34;68.04;101418.31;5078074;27;45282;-76
2022/02/15 08:39:30;;;;;;;;;2.00;1.00;;;;;8.37;68.02;101418.44;5070970;28;45880;-77
2022/02/15 08:42:04;;;;;;;;;2.00;2.00;;;;;8.39;68.20;101421.13;5071007;28;45537;-75
2022/02/15 08:44:34;;;;;;;;;4.00;1.25;;;;;8.43;67.49;101419.47;5065982;28;47717;-75
2022/02/15 08:47:05;;;;;;;;;2.50;1.50;;;;;8.44;67.77;101416.88;5075230;28;45529;-76
2022/02/15 08:49:31;;;;;;;;;4.00;1.50;;;;;8.47;67.61;101410.78;5067394;28;45464;-75
2022/02/15 08:51:56;;;;;;;;;5.25;1.00;;;;;8.49;67.71;101411.75;5077972;28;45905;-76
2022/02/15 08:54:21;;;;;;;;;0.00;0.00;;;;;8.51;67.51;101408.28;5068927;28;58749;-76
2022/02/15 08:56:47;;;;;;;;;2.00;1.00;;;;;8.54;67.67;101396.97;5076211;28;45602;-76
2022/02/15 08:59:14;;;;;;;;;5.00;1.00;;;;;8.58;67.43;101410.28;5075732;28;56377;-77
2022/02/15 09:01:40;;;;;;;;;4.75;0.00;;;;;8.55;67.00;101389.13;5073152;28;45683;-75
2022/02/15 09:04:05;;;;;;;;;3.25;0.00;;;;;8.58;67.12;101383.06;5056792;28;45582;-75
2022/02/15 09:06:35;;;;;;;;;2.25;1.00;;;;;8.61;67.19;101381.38;5076598;28;60678;-75
2022/02/15 09:09:10;;;;;;;;;1.50;1.00;;;;;8.67;66.94;101380.66;5067843;28;45480;-75
2022/02/15 09:11:36;;;;;;;;;2.50;1.00;;;;;8.71;66.84;101376.38;5064371;28;45393;-75
2022/02/15 09:14:02;;;;;;;;;0.00;0.00;;;;;8.76;67.12;101369.50;5067440;28;46764;-75
2022/02/15 09:16:27;;;;;;;;;3.00;1.00;;;;;8.82;66.95;101377.56;5071593;28;45372;-75
2022/02/15 09:18:53;;;;;;;;;2.25;1.00;;;;;8.87;66.95;101373.31;5053021;28;45489;-75
2022/02/15 09:21:20;;;;;;;;;0.25;0.00;;;;;8.91;66.62;101376.06;5076726;28;45486;-75
2022/02/15 09:23:48;;;;;;;;;1.00;1.00;;;;;8.87;66.57;101376.84;5073000;28;46969;-76
2022/02/15 09:26:15;;;;;;;;;0.00;0.00;;;;;8.96;66.39;101394.63;5074165;28;45656;-75
2022/02/15 09:28:41;;;;;;;;;2.50;1.00;;;;;8.99;66.50;101388.53;5067486;28;45321;-76
2022/02/15 09:31:08;;;;;;;;;2.25;1.00;;;;;9.04;66.29;101390.44;5046292;28;46575;-76
2022/02/15 09:33:34;;;;;;;;;5.00;1.25;;;;;9.03;66.25;101374.59;5057672;28;45664;-76
2022/02/15 09:35:59;;;;;;;;;0.00;0.00;;;;;9.14;66.22;101378.41;5080042;27;45357;-75
2022/02/15 09:38:24;;;;;;;;;1.00;1.00;;;;;9.19;66.27;101385.56;5057949;27;47838;-76
2022/02/15 09:40:50;;;;;;;;;1.00;1.00;;;;;9.23;65.63;101385.66;5057570;28;53418;-77
2022/02/15 09:43:20;;;;;;;;;2.00;0.00;;;;;9.29;65.89;101380.53;5057821;28;45383;-76
2022/02/15 09:45:47;;;;;;;;;4.00;1.00;;;;;9.33;65.46;101382.41;5056576;28;45450;-77
2022/02/15 09:48:13;;;;;;;;;1.00;1.00;;;;;9.37;65.91;101378.97;5057444;28;46414;-76
2022/02/15 09:50:39;;;;;;;;;1.50;0.00;;;;;9.41;65.66;101389.63;5061733;28;45546;-76
2022/02/15 09:53:04;;;;;;;;;1.67;0.67;;;;;9.45;65.53;101382.69;5057604;28;45295;-76
2022/02/15 09:55:30;;;;;;;;;0.33;0.33;;;;;9.50;65.72;101381.06;5057013;28;60951;-75
2022/02/15 09:57:57;;;;;;;;;1.00;0.00;;;;;9.57;65.59;101377.72;5057087;28;55428;-76
2022/02/15 10:00:23;;;;;;;;;2.67;0.00;;;;;9.60;65.13;101374.28;5060171;28;45165;-76
2022/02/15 10:02:48;;;;;;;;;1.33;0.00;;;;;9.75;65.02;101393.09;5069906;28;45975;-75
2022/02/15 10:05:15;;;;;;;;;3.67;1.00;;;;;9.92;64.82;101382.94;5056447;28;45350;-76
2022/02/15 10:07:51;;;;;;;;;3.33;0.67;;;;;10.12;65.07;101378.06;5057445;28;45451;-75
2022/02/15 10:10:36;;;;;;;;;3.00;1.00;;;;;10.34;63.79;101388.28;5062794;28;45523;-76
2022/02/15 10:13:07;;;;;;;;;2.00;0.67;;;;;10.43;63.81;101375.25;5057483;28;45356;-76
2022/02/15 10:15:37;;;;;;;;;1.00;0.00;;;;;10.57;63.73;101379.94;5057682;28;45234;-76
2022/02/15 10:18:13;;;;;;;;;0.67;0.67;;;;;10.67;63.75;101376.59;5042134;28;45466;-76
2022/02/15 10:20:42;;;;;;;;;1.00;0.00;;;;;10.85;62.82;101399.84;5047486;28;45434;-76
2022/02/15 10:23:24;;;;;;;;;3.67;1.67;;;;;10.93;62.87;101393.84;5065259;28;45266;-76
2022/02/15 10:25:56;;;;;;;;;2.00;1.00;;;;;11.02;62.70;101398.38;5057494;28;45442;-75
2022/02/15 10:28:26;;;;;;;;;3.25;1.00;;;;;11.07;62.79;101398.47;5057430;28;45391;-76
2022/02/15 10:30:53;;;;;;;;;3.67;0.67;;;;;11.07;62.59;101395.81;5039878;28;45565;-76
2022/02/15 10:33:22;;;;;;;;;1.00;1.00;;;;;10.98;62.63;101399.22;5056828;28;46597;-76
2022/02/15 10:36:26;;;;;;;;;2.33;1.33;;;;;10.88;62.53;101410.47;5035993;28;45347;-75
2022/02/15 10:38:53;;;;;;;;;0.33;0.33;;;;;10.77;62.55;101399.69;5054344;28;45888;-75
2022/02/15 10:41:21;;;;;;;;;2.00;1.00;;;;;10.67;62.87;101389.81;5077370;28;45489;-76
2022/02/15 10:43:46;;;;;;;;;0.00;0.00;;;;;10.68;62.88;101395.13;5077468;28;46604;-76
2022/02/15 10:46:18;;;;;;;;;4.67;1.00;;;;;10.66;62.88;101375.72;5077568;28;45355;-76
2022/02/15 10:48:44;;;;;;;;;1.67;1.00;;;;;10.64;63.06;101368.63;5077793;28;45412;-75
2022/02/15 10:51:14;;;;;;;;;2.67;0.00;;;;;10.69;62.64;101381.03;5077696;28;45390;-75
2022/02/15 10:54:00;;;;;;;;;6.33;0.33;;;;;10.72;63.00;101360.00;5076430;28;46988;-76
2022/02/15 10:56:32;;;;;;;;;1.00;0.00;;;;;10.82;62.96;101376.91;5077139;28;45402;-75
2022/02/15 10:59:02;;;;;;;;;1.67;1.00;;;;;10.84;63.09;101361.06;5059950;28;45315;-76
2022/02/15 11:01:28;;;;;;;;;2.67;0.00;;;;;10.87;62.65;101359.38;5066215;28;45326;-76
2022/02/15 11:03:53;;;;;;;;;1.00;1.00;;;;;10.93;62.68;101359.50;5042270;28;46468;-76
2022/02/15 11:06:18;;;;;;;;;3.67;0.00;;;;;11.08;62.05;101347.38;5064685;28;61405;-77
2022/02/15 11:08:44;;;;;;;;;1.33;0.00;;;;;11.19;61.90;101354.66;5056564;28;52582;-76
2022/02/15 11:11:26;;;;;;;;;0.67;0.00;;;;;11.19;61.62;101336.16;5044829;28;45579;-76
2022/02/15 11:13:55;;;;;;;;;7.00;1.00;;;;;11.19;61.54;101336.16;5062315;28;45656;-76
2022/02/15 11:16:21;;;;;;;;;1.33;1.00;;;;;11.22;61.89;101335.31;5058979;28;45695;-76
2022/02/15 11:18:49;;;;;;;;;1.00;1.00;;;;;11.24;61.90;101323.91;5068157;28;45300;-76
2022/02/15 11:21:27;;;;;;;;;2.00;1.00;;;;;11.42;62.03;101327.69;5067052;28;45560;-75
2022/02/15 11:24:06;;;;;;;;;0.00;0.00;;;;;11.58;61.65;101334.13;5063723;28;46509;-76
2022/02/15 11:26:39;;;;;;;;;0.67;0.00;;;;;11.77;61.04;101336.13;5060346;28;45356;-75
2022/02/15 11:29:04;;;;;;;;;1.00;0.00;;;;;11.88;61.02;101345.19;5060113;28;45515;-75
2022/02/15 11:31:36;;;;;;;;;0.00;0.00;;;;;12.11;60.64;101339.28;5059993;28;45541;-75
2022/02/15 11:34:03;;;;;;;;;4.00;1.00;;;;;12.32;60.34;101350.16;5041777;28;47522;-76